Albany, Missouri
Current Conditions -  °F | °C
As of 4:53 PM on Thursday 23 Oct 2014 (Local Time) from KLWD Reporting Station
Clear Clear  
Wind Chill: 19°   Ceiling: Unl
Heat Index: 19°   Visibility: 10mi
Dew Point: 14°   Wind: 0mph
Humidity: 73%   Direction: NA
Pressure: 30.02"   Gusts: NA
Location:  40.25°N, 94.33°W
Report Text: KLWD 232153Z AUTO 00000KT 10SM CLR 19/14 A3002 RMK AO2 SLP165 T01890139
Loading
Personal Weather Stations






























Interactive Weather Map
Tropical Storm Tracking
New forecast layout! Learn more

10-Day Weather Forecast

Advertisements
Track Severe Weather on mobile